Thursday, March 05, 2015
20:16 UTC
  |  Log In   |  Register Free
Airport Search:

Seattle-Tacoma International Airport
(KSEA)

FAA data valid effective January 08, 2015 - March 05, 2015 (unless otherwise noted).

 
 
 
 
 
 
 
 
 
 
 
 
 
 

Current Aviation Weather for Seattle-Tacoma International Airport (KSEA)

The most recent METAR observation for KSEA was updated at: 2016
METAR Summary (Translated METAR)
KSEA
051953Z 28004KT 10SM FEW140 BKN250 11/01 A3038 RMK AO2 SLP296 ACSL DSNT SE T01110006
KRNT
051953Z 33005KT 10SM CLR 11/01 A3038 RMK AO2 SLP293 T01060006 $
(4.6 nm NE from KSEA)
KBFI
051953Z 00000KT 10SM CLR 12/M02 A3039 RMK AO2 SLP289 T01221017
(4.9 nm NE from KSEA)
TAF Summary (Translated TAF)
KSEA
051726Z 0518/0624 VRB03KT P6SM BKN250
KBFI
(4.9 nm NE from KSEA)
051726Z 0518/0618 15002KT P6SM BKN250
  Airport Weather Conditions for KSEA

 Current Weather at SEA
52° F
Mostly Cloudy
West winds at 4.6 mph
SEA NOAA Radar

Pressure: 30.38 in
Humidity: 49%
Wind: West at 4.6 MPH (4 KT)
Dew Point: 33.1°F
Visibility: 10.00 mi


Airport Weather Forecast for KSEA

Translated METAR and TAF for KSEA
Translated METAR for KSEA (2016 UTC 05 March 2015)
found at http://aviationweather.gov/adds/metars/
 
METAR text: KSEA 051953Z 28004KT 10SM FEW140 BKN250 11/01 A3038 RMK AO2 SLP296 ACSL DSNT SE T01110006
Conditions at: KSEA (SEATTLE/METRO , WA, US) observed 1953 UTC 05 March 2015
Temperature: 11.1°C (52°F)
Dewpoint: 0.6°C (33°F) [RH = 48%]
Pressure (altimeter): 30.38 inches Hg (1028.9 mb)
[Sea-level pressure: 1029.6 mb]
Winds: from the W (280 degrees) at 5 MPH (4 knots; 2.1 m/s)
Visibility: 10 or more miles (16+ km)
Ceiling: 25000 feet AGL
Clouds: few clouds at 14000 feet AGL
broken clouds at 25000 feet AGL
Weather: no significant weather observed at this time
Translated TAF for KSEA
Forecast for: KSEA (SEATTLE/METRO , WA, US)
TAF Text: KSEA 051726Z 0518/0624 VRB03KT P6SM BKN250
Forecast period: 1800 UTC 05 March 2015 to 0000 UTC 07 March 2015
Forecast type: FROM: standard forecast or significant change
Winds: variable direction winds at 3 MPH (3 knots; 1.6 m/s)
Visibility: 6 or more miles (10+ km)
Ceiling: 25000 feet AGL
Clouds: broken clouds at 25000 feet AGL
Weather: no significant weather forecast for this period

Find All Airport Services Find A Hotel Find A Rental Car Find A Golf Course Find A Restaurant $100 Hamburger



FBO's on the Field
FBO Company Facility Photos Services Transportation Aviation Fuel Prices: Prices include tax
Catering Weather Repair Courtesy Rental Type 100LL JetA JetA+ MOGAS 8087
 
Aircraft Service Intl.

This FBO has not yet been rated
FS:Avfuel
Last Updated: Feb-24
Login to update fuel prices
SS:
Contact Aircraft Service Intl.More FBO Information
 
Add another FBO Facility Photos Catering Weather Repair Courtesy Rental Type 100LL JetA JetA+ MOGAS 8087
Services Transportation Aviation Fuel Prices: Prices include tax


model-print
model-print
model-print
model-print